sensor_id;sensor_type;location;lat;lon;timestamp;pressure;altitude;pressure_sealevel;temperature;humidity
19150;BME280;9707;49.158;8.632;2023-12-20T00:00:14;100501.16;;;17.30;37.27
19150;BME280;9707;49.158;8.632;2023-12-20T00:02:40;100511.84;;;17.31;37.09
19150;BME280;9707;49.158;8.632;2023-12-20T00:05:05;100501.94;;;17.32;37.36
19150;BME280;9707;49.158;8.632;2023-12-20T00:07:31;100496.56;;;17.32;37.13
19150;BME280;9707;49.158;8.632;2023-12-20T00:09:56;100506.38;;;17.33;37.44
19150;BME280;9707;49.158;8.632;2023-12-20T00:12:21;100501.81;;;17.33;37.27
19150;BME280;9707;49.158;8.632;2023-12-20T00:14:47;100502.72;;;17.34;36.98
19150;BME280;9707;49.158;8.632;2023-12-20T00:17:12;100508.09;;;17.34;37.20
19150;BME280;9707;49.158;8.632;2023-12-20T00:19:37;100505.41;;;17.34;37.51
19150;BME280;9707;49.158;8.632;2023-12-20T00:22:03;100505.41;;;17.34;37.69
19150;BME280;9707;49.158;8.632;2023-12-20T00:24:28;100493.56;;;17.36;37.58
19150;BME280;9707;49.158;8.632;2023-12-20T00:26:53;100493.56;;;17.36;37.45
19150;BME280;9707;49.158;8.632;2023-12-20T00:29:18;100503.47;;;17.36;37.38
19150;BME280;9707;49.158;8.632;2023-12-20T00:31:44;100499.03;;;17.35;37.56
19150;BME280;9707;49.158;8.632;2023-12-20T00:34:09;100497.31;;;17.34;37.48
19150;BME280;9707;49.158;8.632;2023-12-20T00:36:35;100496.34;;;17.35;37.91
19150;BME280;9707;49.158;8.632;2023-12-20T00:39:00;100498.19;;;17.34;37.55
19150;BME280;9707;49.158;8.632;2023-12-20T00:41:25;100496.34;;;17.35;37.37
19150;BME280;9707;49.158;8.632;2023-12-20T00:43:50;100497.41;;;17.32;37.80
19150;BME280;9707;49.158;8.632;2023-12-20T00:46:16;100493.88;;;17.32;37.76
19150;BME280;9707;49.158;8.632;2023-12-20T00:48:41;100496.56;;;17.32;37.69
19150;BME280;9707;49.158;8.632;2023-12-20T00:51:07;100485.09;;;17.28;37.84
19150;BME280;9707;49.158;8.632;2023-12-20T00:53:32;100488.66;;;17.29;37.76
19150;BME280;9707;49.158;8.632;2023-12-20T00:55:58;100489.75;;;17.26;37.88
19150;BME280;9707;49.158;8.632;2023-12-20T00:58:23;100498.78;;;17.25;37.77
19150;BME280;9707;49.158;8.632;2023-12-20T01:00:49;100488.09;;;17.24;38.03
19150;BME280;9707;49.158;8.632;2023-12-20T01:03:14;100496.19;;;17.24;38.21
19150;BME280;9707;49.158;8.632;2023-12-20T01:05:40;100501.56;;;17.24;37.96
19150;BME280;9707;49.158;8.632;2023-12-20T01:08:05;100493.50;;;17.24;38.36
19150;BME280;9707;49.158;8.632;2023-12-20T01:10:31;100492.53;;;17.25;38.37
19150;BME280;9707;49.158;8.632;2023-12-20T01:12:57;100493.41;;;17.25;38.05
19150;BME280;9707;49.158;8.632;2023-12-20T01:15:22;100496.94;;;17.26;38.27
19150;BME280;9707;49.158;8.632;2023-12-20T01:17:48;100493.41;;;17.25;38.16
19150;BME280;9707;49.158;8.632;2023-12-20T01:20:14;100498.78;;;17.25;38.23
19150;BME280;9707;49.158;8.632;2023-12-20T01:22:39;100483.59;;;17.24;38.28
19150;BME280;9707;49.158;8.632;2023-12-20T01:25:05;100480.91;;;17.24;38.41
19150;BME280;9707;49.158;8.632;2023-12-20T01:27:30;100470.97;;;17.25;38.37
19150;BME280;9707;49.158;8.632;2023-12-20T01:29:56;100471.88;;;17.25;38.48
19150;BME280;9707;49.158;8.632;2023-12-20T01:32:21;100467.31;;;17.26;38.51
19150;BME280;9707;49.158;8.632;2023-12-20T01:34:47;100476.19;;;17.28;38.42
19150;BME280;9707;49.158;8.632;2023-12-20T01:37:13;100472.63;;;17.27;38.50
19150;BME280;9707;49.158;8.632;2023-12-20T01:39:38;100469.84;;;17.29;38.40
19150;BME280;9707;49.158;8.632;2023-12-20T01:42:04;100463.47;;;17.30;38.48
19150;BME280;9707;49.158;8.632;2023-12-20T01:44:29;100463.47;;;17.30;38.50
19150;BME280;9707;49.158;8.632;2023-12-20T01:46:55;100477.72;;;17.32;38.52
19150;BME280;9707;49.158;8.632;2023-12-20T01:49:21;100478.56;;;17.32;38.43
19150;BME280;9707;49.158;8.632;2023-12-20T01:51:46;100470.41;;;17.34;38.66
19150;BME280;9707;49.158;8.632;2023-12-20T01:54:12;100475.78;;;17.34;38.44
19150;BME280;9707;49.158;8.632;2023-12-20T01:56:39;100468.66;;;17.33;38.34
19150;BME280;9707;49.158;8.632;2023-12-20T01:59:05;100471.28;;;17.34;38.34
19150;BME280;9707;49.158;8.632;2023-12-20T02:01:31;100472.13;;;17.35;38.44
19150;BME280;9707;49.158;8.632;2023-12-20T02:03:57;100470.41;;;17.34;38.43
19150;BME280;9707;49.158;8.632;2023-12-20T02:06:24;100475.69;;;17.35;38.67
19150;BME280;9707;49.158;8.632;2023-12-20T02:08:54;100473.00;;;17.35;38.60
19150;BME280;9707;49.158;8.632;2023-12-20T02:11:19;100475.78;;;17.34;38.47
19150;BME280;9707;49.158;8.632;2023-12-20T02:13:45;100475.78;;;17.34;38.54
19150;BME280;9707;49.158;8.632;2023-12-20T02:16:10;100469.50;;;17.33;38.58
19150;BME280;9707;49.158;8.632;2023-12-20T02:18:35;100476.66;;;17.34;38.59
19150;BME280;9707;49.158;8.632;2023-12-20T02:21:01;100474.72;;;17.36;38.44
19150;BME280;9707;49.158;8.632;2023-12-20T02:23:26;100473.84;;;17.36;38.62
19150;BME280;9707;49.158;8.632;2023-12-20T02:25:51;100470.22;;;17.37;38.73
19150;BME280;9707;49.158;8.632;2023-12-20T02:28:16;100469.25;;;17.38;38.64
19150;BME280;9707;49.158;8.632;2023-12-20T02:30:42;100471.00;;;17.39;38.64
19150;BME280;9707;49.158;8.632;2023-12-20T02:33:08;100472.78;;;17.38;38.56
19150;BME280;9707;49.158;8.632;2023-12-20T02:35:35;100471.00;;;17.39;38.57
19150;BME280;9707;49.158;8.632;2023-12-20T02:38:00;100473.59;;;17.40;38.56
19150;BME280;9707;49.158;8.632;2023-12-20T02:40:26;100471.66;;;17.42;38.51
19150;BME280;9707;49.158;8.632;2023-12-20T02:42:51;100481.56;;;17.42;38.75
19150;BME280;9707;49.158;8.632;2023-12-20T02:45:16;100487.81;;;17.42;38.66
19150;BME280;9707;49.158;8.632;2023-12-20T02:47:41;100486.00;;;17.43;38.74
19150;BME280;9707;49.158;8.632;2023-12-20T02:50:07;100488.59;;;17.44;38.65
19150;BME280;9707;49.158;8.632;2023-12-20T02:52:32;100485.78;;;17.46;38.58
19150;BME280;9707;49.158;8.632;2023-12-20T02:54:57;100487.53;;;17.47;38.65
19150;BME280;9707;49.158;8.632;2023-12-20T02:57:23;100495.69;;;17.45;38.52
19150;BME280;9707;49.158;8.632;2023-12-20T02:59:48;100498.31;;;17.47;38.62
19150;BME280;9707;49.158;8.632;2023-12-20T03:02:13;100498.31;;;17.47;38.19
19150;BME280;9707;49.158;8.632;2023-12-20T03:04:39;100487.53;;;17.47;38.62
19150;BME280;9707;49.158;8.632;2023-12-20T03:07:04;100493.75;;;17.47;38.60
19150;BME280;9707;49.158;8.632;2023-12-20T03:09:29;100482.00;;;17.48;38.55
19150;BME280;9707;49.158;8.632;2023-12-20T03:11:54;100468.56;;;17.48;38.41
19150;BME280;9707;49.158;8.632;2023-12-20T03:14:19;100474.81;;;17.49;38.60
19150;BME280;9707;49.158;8.632;2023-12-20T03:16:51;100478.38;;;17.49;38.58
19150;BME280;9707;49.158;8.632;2023-12-20T03:19:17;100473.09;;;17.48;38.71
19150;BME280;9707;49.158;8.632;2023-12-20T03:21:43;100491.94;;;17.48;38.66
19150;BME280;9707;49.158;8.632;2023-12-20T03:24:08;100466.72;;;17.49;38.74
19150;BME280;9707;49.158;8.632;2023-12-20T03:26:33;100476.53;;;17.50;38.58
19150;BME280;9707;49.158;8.632;2023-12-20T03:28:58;100477.41;;;17.50;38.58
19150;BME280;9707;49.158;8.632;2023-12-20T03:31:24;100482.72;;;17.52;38.74
19150;BME280;9707;49.158;8.632;2023-12-20T03:33:49;100492.50;;;17.53;38.63
19150;BME280;9707;49.158;8.632;2023-12-20T03:36:16;100497.91;;;17.53;38.56
19150;BME280;9707;49.158;8.632;2023-12-20T03:38:41;100486.16;;;17.54;38.69
19150;BME280;9707;49.158;8.632;2023-12-20T03:41:07;100478.06;;;17.54;38.41
19150;BME280;9707;49.158;8.632;2023-12-20T03:43:32;100476.34;;;17.53;38.61
19150;BME280;9707;49.158;8.632;2023-12-20T03:45:57;100475.38;;;17.54;38.67
19150;BME280;9707;49.158;8.632;2023-12-20T03:48:23;100478.06;;;17.54;38.49
19150;BME280;9707;49.158;8.632;2023-12-20T03:50:49;100476.34;;;17.53;38.43
19150;BME280;9707;49.158;8.632;2023-12-20T03:53:14;100470.09;;;17.52;38.43
19150;BME280;9707;49.158;8.632;2023-12-20T03:55:39;100470.97;;;17.53;38.46
19150;BME280;9707;49.158;8.632;2023-12-20T03:58:04;100470.97;;;17.53;38.62
19150;BME280;9707;49.158;8.632;2023-12-20T04:00:30;100477.31;;;17.52;38.44
19150;BME280;9707;49.158;8.632;2023-12-20T04:02:55;100480.00;;;17.52;38.51
19150;BME280;9707;49.158;8.632;2023-12-20T04:05:20;100497.09;;;17.51;38.63
19150;BME280;9707;49.158;8.632;2023-12-20T04:07:45;100491.72;;;17.51;38.61
19150;BME280;9707;49.158;8.632;2023-12-20T04:10:11;100484.53;;;17.51;38.63
19150;BME280;9707;49.158;8.632;2023-12-20T04:12:36;100500.69;;;17.51;38.64
19150;BME280;9707;49.158;8.632;2023-12-20T04:15:01;100491.72;;;17.51;38.30
19150;BME280;9707;49.158;8.632;2023-12-20T04:17:28;100499.81;;;17.51;38.87
19150;BME280;9707;49.158;8.632;2023-12-20T04:19:53;100485.41;;;17.52;38.67
19150;BME280;9707;49.158;8.632;2023-12-20T04:22:19;100488.09;;;17.52;38.64
19150;BME280;9707;49.158;8.632;2023-12-20T04:24:44;100484.53;;;17.51;38.67
19150;BME280;9707;49.158;8.632;2023-12-20T04:27:10;100502.41;;;17.52;38.62
19150;BME280;9707;49.158;8.632;2023-12-20T04:29:35;100505.19;;;17.51;38.61
19150;BME280;9707;49.158;8.632;2023-12-20T04:32:00;100498.97;;;17.50;38.53
19150;BME280;9707;49.158;8.632;2023-12-20T04:34:26;100504.44;;;17.49;38.69
19150;BME280;9707;49.158;8.632;2023-12-20T04:36:51;100496.34;;;17.49;38.57
19150;BME280;9707;49.158;8.632;2023-12-20T04:39:17;100504.44;;;17.49;38.70
19150;BME280;9707;49.158;8.632;2023-12-20T04:41:42;100510.78;;;17.48;38.69
19150;BME280;9707;49.158;8.632;2023-12-20T04:44:07;100515.31;;;17.47;38.75
19150;BME280;9707;49.158;8.632;2023-12-20T04:46:32;100516.19;;;17.48;38.69
19150;BME280;9707;49.158;8.632;2023-12-20T04:48:58;100519.84;;;17.47;38.66
19150;BME280;9707;49.158;8.632;2023-12-20T04:51:23;100526.06;;;17.47;38.70
19150;BME280;9707;49.158;8.632;2023-12-20T04:53:48;100535.03;;;17.48;38.89
19150;BME280;9707;49.158;8.632;2023-12-20T04:56:14;100532.34;;;17.48;38.75
19150;BME280;9707;49.158;8.632;2023-12-20T04:58:39;100529.66;;;17.48;38.60
19150;BME280;9707;49.158;8.632;2023-12-20T05:01:06;100526.06;;;17.47;38.95
19150;BME280;9707;49.158;8.632;2023-12-20T05:03:31;100534.94;;;17.49;38.96
19150;BME280;9707;49.158;8.632;2023-12-20T05:05:56;100536.66;;;17.50;38.85
19150;BME280;9707;49.158;8.632;2023-12-20T05:08:22;100536.66;;;17.50;39.10
19150;BME280;9707;49.158;8.632;2023-12-20T05:10:47;100537.50;;;17.51;38.74
19150;BME280;9707;49.158;8.632;2023-12-20T05:13:12;100539.25;;;17.52;38.87
19150;BME280;9707;49.158;8.632;2023-12-20T05:15:38;100550.97;;;17.51;38.76
19150;BME280;9707;49.158;8.632;2023-12-20T05:18:03;100540.19;;;17.51;38.90
19150;BME280;9707;49.158;8.632;2023-12-20T05:20:29;100552.72;;;17.52;38.82
19150;BME280;9707;49.158;8.632;2023-12-20T05:22:54;100552.72;;;17.52;38.88
19150;BME280;9707;49.158;8.632;2023-12-20T05:25:19;100564.44;;;17.51;38.86
19150;BME280;9707;49.158;8.632;2023-12-20T05:27:45;100560.81;;;17.52;38.78
19150;BME280;9707;49.158;8.632;2023-12-20T05:30:11;100565.31;;;17.51;38.93
19150;BME280;9707;49.158;8.632;2023-12-20T05:32:36;100570.72;;;17.51;39.00
19150;BME280;9707;49.158;8.632;2023-12-20T05:35:01;100581.47;;;17.51;38.95
19150;BME280;9707;49.158;8.632;2023-12-20T05:37:26;100578.69;;;17.53;38.74
19150;BME280;9707;49.158;8.632;2023-12-20T05:39:52;100588.59;;;17.52;38.86
19150;BME280;9707;49.158;8.632;2023-12-20T05:42:17;100586.78;;;17.53;38.95
19150;BME280;9707;49.158;8.632;2023-12-20T05:44:42;100596.59;;;17.54;39.00
19150;BME280;9707;49.158;8.632;2023-12-20T05:47:07;100597.47;;;17.54;38.99
19150;BME280;9707;49.158;8.632;2023-12-20T05:49:33;100593.66;;;17.57;38.93
19150;BME280;9707;49.158;8.632;2023-12-20T05:51:58;100594.63;;;17.56;38.88
19150;BME280;9707;49.158;8.632;2023-12-20T05:54:23;100599.94;;;17.57;38.89
19150;BME280;9707;49.158;8.632;2023-12-20T05:56:48;100595.53;;;17.56;39.00
19150;BME280;9707;49.158;8.632;2023-12-20T05:59:14;100592.75;;;17.58;38.84
19150;BME280;9707;49.158;8.632;2023-12-20T06:01:39;100598.13;;;17.58;38.93
19150;BME280;9707;49.158;8.632;2023-12-20T06:04:04;100602.53;;;17.59;38.98
19150;BME280;9707;49.158;8.632;2023-12-20T06:06:30;100612.34;;;17.60;39.05
19150;BME280;9707;49.158;8.632;2023-12-20T06:08:55;100618.59;;;17.60;38.95
19150;BME280;9707;49.158;8.632;2023-12-20T06:11:21;100620.34;;;17.61;38.85
19150;BME280;9707;49.158;8.632;2023-12-20T06:13:46;100628.31;;;17.63;38.88
19150;BME280;9707;49.158;8.632;2023-12-20T06:16:11;100615.78;;;17.62;38.80
19150;BME280;9707;49.158;8.632;2023-12-20T06:18:37;100618.47;;;17.62;38.96
19150;BME280;9707;49.158;8.632;2023-12-20T06:21:02;100620.25;;;17.63;38.80
19150;BME280;9707;49.158;8.632;2023-12-20T06:23:28;100627.44;;;17.62;38.86
19150;BME280;9707;49.158;8.632;2023-12-20T06:25:53;100615.69;;;17.63;39.04
19150;BME280;9707;49.158;8.632;2023-12-20T06:28:18;100624.66;;;17.64;38.96
19150;BME280;9707;49.158;8.632;2023-12-20T06:30:44;100626.38;;;17.65;38.94
19150;BME280;9707;49.158;8.632;2023-12-20T06:33:09;100636.28;;;17.64;38.87
19150;BME280;9707;49.158;8.632;2023-12-20T06:35:36;100641.78;;;17.63;38.76
19150;BME280;9707;49.158;8.632;2023-12-20T06:38:01;100640.81;;;17.64;38.94
19150;BME280;9707;49.158;8.632;2023-12-20T06:40:27;100645.34;;;17.63;38.99
19150;BME280;9707;49.158;8.632;2023-12-20T06:42:52;100643.53;;;17.64;38.92
19150;BME280;9707;49.158;8.632;2023-12-20T06:45:17;100640.81;;;17.64;38.90
19150;BME280;9707;49.158;8.632;2023-12-20T06:47:42;100644.38;;;17.64;38.67
19150;BME280;9707;49.158;8.632;2023-12-20T06:50:08;100648.91;;;17.64;38.78
19150;BME280;9707;49.158;8.632;2023-12-20T06:52:34;100647.06;;;17.64;38.88
19150;BME280;9707;49.158;8.632;2023-12-20T06:55:00;100658.72;;;17.65;38.87
19150;BME280;9707;49.158;8.632;2023-12-20T06:57:25;100670.38;;;17.65;38.88
19150;BME280;9707;49.158;8.632;2023-12-20T06:59:51;100660.44;;;17.66;38.64
19150;BME280;9707;49.158;8.632;2023-12-20T07:02:17;100660.53;;;17.64;38.33
19150;BME280;9707;49.158;8.632;2023-12-20T07:04:42;100663.34;;;17.63;38.47
19150;BME280;9707;49.158;8.632;2023-12-20T07:07:07;100665.34;;;17.59;38.52
19150;BME280;9707;49.158;8.632;2023-12-20T07:09:33;100678.94;;;17.58;38.68
19150;BME280;9707;49.158;8.632;2023-12-20T07:11:59;100672.66;;;17.57;38.70
19150;BME280;9707;49.158;8.632;2023-12-20T07:14:24;100674.59;;;17.55;38.52
19150;BME280;9707;49.158;8.632;2023-12-20T07:16:49;100681.81;;;17.55;38.64
19150;BME280;9707;49.158;8.632;2023-12-20T07:19:15;100684.41;;;17.56;38.78
19150;BME280;9707;49.158;8.632;2023-12-20T07:21:40;100689.72;;;17.58;39.06
19150;BME280;9707;49.158;8.632;2023-12-20T07:24:05;100685.16;;;17.58;38.84
19150;BME280;9707;49.158;8.632;2023-12-20T07:26:31;100676.25;;;17.58;38.80
19150;BME280;9707;49.158;8.632;2023-12-20T07:28:56;100692.28;;;17.59;38.72
19150;BME280;9707;49.158;8.632;2023-12-20T07:31:24;100694.88;;;17.61;38.65
19150;BME280;9707;49.158;8.632;2023-12-20T07:33:49;100702.22;;;17.59;38.48
19150;BME280;9707;49.158;8.632;2023-12-20T07:36:14;100690.47;;;17.60;38.70
19150;BME280;9707;49.158;8.632;2023-12-20T07:38:40;100696.59;;;17.62;38.72
19150;BME280;9707;49.158;8.632;2023-12-20T07:41:09;100695.66;;;17.63;38.64
19150;BME280;9707;49.158;8.632;2023-12-20T07:43:34;100692.97;;;17.63;38.36
19150;BME280;9707;49.158;8.632;2023-12-20T07:46:06;100695.56;;;17.64;38.24
19150;BME280;9707;49.158;8.632;2023-12-20T07:48:36;100699.13;;;17.65;38.67
19150;BME280;9707;49.158;8.632;2023-12-20T07:51:03;100707.13;;;17.66;38.63
19150;BME280;9707;49.158;8.632;2023-12-20T07:53:28;100708.75;;;17.69;38.57
19150;BME280;9707;49.158;8.632;2023-12-20T07:55:53;100694.31;;;17.70;38.14
19150;BME280;9707;49.158;8.632;2023-12-20T07:58:19;100703.16;;;17.72;38.13
19150;BME280;9707;49.158;8.632;2023-12-20T08:00:44;100712.19;;;17.71;37.82
19150;BME280;9707;49.158;8.632;2023-12-20T08:03:10;100718.47;;;17.71;37.85
19150;BME280;9707;49.158;8.632;2023-12-20T08:05:35;100722.00;;;17.72;37.66
19150;BME280;9707;49.158;8.632;2023-12-20T08:08:01;100730.09;;;17.72;37.61
19150;BME280;9707;49.158;8.632;2023-12-20T08:10:26;100731.06;;;17.71;37.67
19150;BME280;9707;49.158;8.632;2023-12-20T08:12:54;100727.53;;;17.70;37.75
19150;BME280;9707;49.158;8.632;2023-12-20T08:15:19;100731.06;;;17.71;37.52
19150;BME280;9707;49.158;8.632;2023-12-20T08:17:45;100732.03;;;17.70;37.68
19150;BME280;9707;49.158;8.632;2023-12-20T08:20:10;100727.63;;;17.69;37.39
19150;BME280;9707;49.158;8.632;2023-12-20T08:22:35;100729.50;;;17.67;38.04
19150;BME280;9707;49.158;8.632;2023-12-20T08:25:01;100732.22;;;17.67;37.42
19150;BME280;9707;49.158;8.632;2023-12-20T08:27:26;100731.44;;;17.65;37.10
19150;BME280;9707;49.158;8.632;2023-12-20T08:29:51;100729.81;;;17.62;36.96
19150;BME280;9707;49.158;8.632;2023-12-20T08:32:16;100730.13;;;17.58;37.32
19150;BME280;9707;49.158;8.632;2023-12-20T08:34:42;100744.50;;;17.57;37.32
19150;BME280;9707;49.158;8.632;2023-12-20T08:37:07;100752.81;;;17.54;37.33
19150;BME280;9707;49.158;8.632;2023-12-20T08:39:32;100755.59;;;17.52;37.36
19150;BME280;9707;49.158;8.632;2023-12-20T08:41:58;100752.03;;;17.52;37.48
19150;BME280;9707;49.158;8.632;2023-12-20T08:44:24;100748.47;;;17.51;37.43
19150;BME280;9707;49.158;8.632;2023-12-20T08:46:49;100750.28;;;17.51;37.45
19150;BME280;9707;49.158;8.632;2023-12-20T08:49:14;100744.91;;;17.51;37.65
19150;BME280;9707;49.158;8.632;2023-12-20T08:51:39;100742.31;;;17.49;37.69
19150;BME280;9707;49.158;8.632;2023-12-20T08:54:06;100747.81;;;17.48;37.76
19150;BME280;9707;49.158;8.632;2023-12-20T08:56:33;100744.13;;;17.49;37.54
19150;BME280;9707;49.158;8.632;2023-12-20T08:58:58;100749.53;;;17.49;37.53
19150;BME280;9707;49.158;8.632;2023-12-20T09:01:24;100740.47;;;17.50;37.54
19150;BME280;9707;49.158;8.632;2023-12-20T09:03:49;100746.06;;;17.47;37.32
19150;BME280;9707;49.158;8.632;2023-12-20T09:06:14;100745.19;;;17.46;37.28
19150;BME280;9707;49.158;8.632;2023-12-20T09:08:40;100746.25;;;17.44;37.25
19150;BME280;9707;49.158;8.632;2023-12-20T09:11:06;100749.03;;;17.42;37.14
19150;BME280;9707;49.158;8.632;2023-12-20T09:13:31;100750.09;;;17.40;37.12
19150;BME280;9707;49.158;8.632;2023-12-20T09:15:57;100755.63;;;17.37;37.16
19150;BME280;9707;49.158;8.632;2023-12-20T09:18:23;100761.19;;;17.34;37.25
19150;BME280;9707;49.158;8.632;2023-12-20T09:20:48;100754.09;;;17.33;37.19
19150;BME280;9707;49.158;8.632;2023-12-20T09:23:14;100753.19;;;17.32;36.98
19150;BME280;9707;49.158;8.632;2023-12-20T09:25:39;100762.25;;;17.31;37.13
19150;BME280;9707;49.158;8.632;2023-12-20T09:28:04;100756.94;;;17.30;37.58
19150;BME280;9707;49.158;8.632;2023-12-20T09:30:30;100750.59;;;17.31;37.56
19150;BME280;9707;49.158;8.632;2023-12-20T09:32:55;100761.97;;;17.36;37.86
19150;BME280;9707;49.158;8.632;2023-12-20T09:35:20;100759.13;;;17.39;37.51
19150;BME280;9707;49.158;8.632;2023-12-20T09:37:46;100762.59;;;17.41;37.14
19150;BME280;9707;49.158;8.632;2023-12-20T09:40:13;100767.03;;;17.42;36.53
19150;BME280;9707;49.158;8.632;2023-12-20T09:43:10;100763.38;;;17.43;36.98
19150;BME280;9707;49.158;8.632;2023-12-20T09:45:36;100767.78;;;17.44;37.14
19150;BME280;9707;49.158;8.632;2023-12-20T09:48:01;100767.63;;;17.47;36.95
19150;BME280;9707;49.158;8.632;2023-12-20T09:50:30;100774.72;;;17.48;36.92
19150;BME280;9707;49.158;8.632;2023-12-20T09:52:58;100771.06;;;17.49;36.73
19150;BME280;9707;49.158;8.632;2023-12-20T09:55:24;100761.19;;;17.49;37.13
19150;BME280;9707;49.158;8.632;2023-12-20T09:57:50;100766.44;;;17.51;36.80
19150;BME280;9707;49.158;8.632;2023-12-20T10:00:16;100775.31;;;17.53;37.00
19150;BME280;9707;49.158;8.632;2023-12-20T10:05:17;100761.84;;;17.53;36.59
19150;BME280;9707;49.158;8.632;2023-12-20T10:07:48;100756.47;;;17.53;36.50
19150;BME280;9707;49.158;8.632;2023-12-20T10:10:14;100759.16;;;17.53;36.39
19150;BME280;9707;49.158;8.632;2023-12-20T10:12:39;100764.47;;;17.54;36.29
19150;BME280;9707;49.158;8.632;2023-12-20T10:15:05;100761.66;;;17.56;36.20
19150;BME280;9707;49.158;8.632;2023-12-20T10:17:31;100753.56;;;17.56;36.30
19150;BME280;9707;49.158;8.632;2023-12-20T10:19:57;100752.59;;;17.57;35.79
19150;BME280;9707;49.158;8.632;2023-12-20T10:22:23;100752.59;;;17.57;35.49
19150;BME280;9707;49.158;8.632;2023-12-20T10:24:48;100747.31;;;17.55;35.30
19150;BME280;9707;49.158;8.632;2023-12-20T10:27:13;100763.50;;;17.55;35.06
19150;BME280;9707;49.158;8.632;2023-12-20T10:29:38;100763.50;;;17.55;35.20
19150;BME280;9707;49.158;8.632;2023-12-20T10:32:23;100767.16;;;17.54;35.67
19150;BME280;9707;49.158;8.632;2023-12-20T10:34:49;100750.88;;;17.56;36.22
19150;BME280;9707;49.158;8.632;2023-12-20T10:37:15;100753.38;;;17.59;36.36
19150;BME280;9707;49.158;8.632;2023-12-20T10:39:42;100747.69;;;17.63;36.28
19150;BME280;9707;49.158;8.632;2023-12-20T10:42:10;100745.59;;;17.68;36.70
19150;BME280;9707;49.158;8.632;2023-12-20T10:44:36;100742.63;;;17.73;35.67
19150;BME280;9707;49.158;8.632;2023-12-20T10:47:02;100748.03;;;17.73;35.83
19150;BME280;9707;49.158;8.632;2023-12-20T10:49:30;100741.66;;;17.74;36.00
19150;BME280;9707;49.158;8.632;2023-12-20T10:51:56;100742.41;;;17.76;35.80
19150;BME280;9707;49.158;8.632;2023-12-20T10:54:22;100741.44;;;17.77;35.88
19150;BME280;9707;49.158;8.632;2023-12-20T10:56:50;100727.03;;;17.78;35.62
19150;BME280;9707;49.158;8.632;2023-12-20T10:59:19;100731.47;;;17.79;35.46
19150;BME280;9707;49.158;8.632;2023-12-20T11:01:45;100723.38;;;17.79;35.38
19150;BME280;9707;49.158;8.632;2023-12-20T11:04:17;100732.31;;;17.79;35.42
19150;BME280;9707;49.158;8.632;2023-12-20T11:06:52;100726.81;;;17.81;35.77
19150;BME280;9707;49.158;8.632;2023-12-20T11:09:23;100722.22;;;17.83;35.99
19150;BME280;9707;49.158;8.632;2023-12-20T11:11:56;100737.22;;;17.87;36.35
19150;BME280;9707;49.158;8.632;2023-12-20T11:14:31;100723.56;;;17.90;35.65
19150;BME280;9707;49.158;8.632;2023-12-20T11:17:09;100729.63;;;17.93;35.90
19150;BME280;9707;49.158;8.632;2023-12-20T11:22:20;100719.50;;;17.97;35.36
19150;BME280;9707;49.158;8.632;2023-12-20T11:24:48;100721.25;;;17.98;35.52
19150;BME280;9707;49.158;8.632;2023-12-20T11:27:15;100717.59;;;17.99;35.47
19150;BME280;9707;49.158;8.632;2023-12-20T11:29:41;100720.19;;;18.00;35.55
19150;BME280;9707;49.158;8.632;2023-12-20T11:34:58;100722.78;;;18.02;35.56
19150;BME280;9707;49.158;8.632;2023-12-20T11:37:31;100708.34;;;18.03;35.35
19150;BME280;9707;49.158;8.632;2023-12-20T11:40:05;100713.75;;;18.03;35.57
19150;BME280;9707;49.158;8.632;2023-12-20T11:42:41;100714.50;;;18.05;35.76
19150;BME280;9707;49.158;8.632;2023-12-20T11:45:11;100699.06;;;18.07;35.66
19150;BME280;9707;49.158;8.632;2023-12-20T11:47:37;100695.44;;;18.08;35.88
19150;BME280;9707;49.158;8.632;2023-12-20T11:50:03;100706.09;;;18.09;35.62
19150;BME280;9707;49.158;8.632;2023-12-20T11:52:29;100708.78;;;18.09;35.35
19150;BME280;9707;49.158;8.632;2023-12-20T11:54:56;100711.63;;;18.08;35.01
19150;BME280;9707;49.158;8.632;2023-12-20T11:57:22;100715.25;;;18.07;34.99
19150;BME280;9707;49.158;8.632;2023-12-20T11:59:47;100710.84;;;18.06;35.43
19150;BME280;9707;49.158;8.632;2023-12-20T12:02:12;100710.84;;;18.06;35.33
19150;BME280;9707;49.158;8.632;2023-12-20T12:04:43;100709.09;;;18.05;35.43
19150;BME280;9707;49.158;8.632;2023-12-20T12:07:08;100702.75;;;18.06;35.59
19150;BME280;9707;49.158;8.632;2023-12-20T12:09:34;100714.41;;;18.06;35.53
19150;BME280;9707;49.158;8.632;2023-12-20T12:11:59;100698.22;;;18.06;35.28
19150;BME280;9707;49.158;8.632;2023-12-20T12:14:25;100695.63;;;18.05;35.09
19150;BME280;9707;49.158;8.632;2023-12-20T12:16:50;100691.31;;;18.02;35.23
19150;BME280;9707;49.158;8.632;2023-12-20T12:19:25;100691.41;;;18.01;35.28
19150;BME280;9707;49.158;8.632;2023-12-20T12:21:51;100695.16;;;17.98;35.36
19150;BME280;9707;49.158;8.632;2023-12-20T12:24:28;100688.22;;;17.94;35.74
19150;BME280;9707;49.158;8.632;2023-12-20T12:26:57;100704.50;;;17.93;35.99
19150;BME280;9707;49.158;8.632;2023-12-20T12:29:22;100697.38;;;17.92;36.09
19150;BME280;9707;49.158;8.632;2023-12-20T12:31:49;100697.50;;;17.90;36.20
19150;BME280;9707;49.158;8.632;2023-12-20T12:34:14;100693.81;;;17.91;36.47
19150;BME280;9707;49.158;8.632;2023-12-20T12:36:41;100687.56;;;17.91;35.96
19150;BME280;9707;49.158;8.632;2023-12-20T12:39:06;100691.13;;;17.91;35.92
19150;BME280;9707;49.158;8.632;2023-12-20T12:41:31;100679.47;;;17.91;35.91
19150;BME280;9707;49.158;8.632;2023-12-20T12:43:57;100678.50;;;17.92;35.98
19150;BME280;9707;49.158;8.632;2023-12-20T12:46:22;100681.97;;;17.94;35.90
19150;BME280;9707;49.158;8.632;2023-12-20T12:48:47;100680.13;;;17.94;35.91
19150;BME280;9707;49.158;8.632;2023-12-20T12:51:14;100683.72;;;17.95;35.66
19150;BME280;9707;49.158;8.632;2023-12-20T12:53:39;100680.03;;;17.96;35.84
19150;BME280;9707;49.158;8.632;2023-12-20T12:56:05;100693.44;;;17.97;35.73
19150;BME280;9707;49.158;8.632;2023-12-20T12:58:31;100681.75;;;17.97;35.92
19150;BME280;9707;49.158;8.632;2023-12-20T13:00:57;100691.69;;;17.96;35.88